Terminal Aerodrome Forecast
Issued by NWS Charleston, WV

Home | Current Version | Previous Version | Text Only | Print | Product List | Glossary On
Versions: 1 2 3 4 5 6 7 8 9 10 11 12 13 14 15 16 17 18 19 20
000
FTUS41 KRLX 260300 AAA
TAFPKB
TAF AMD
KPKB 260303Z 2603/2624 21004KT P6SM BKN025
     FM260600 00000KT P6SM SCT025
     FM261500 19004KT P6SM SKC=

USA.gov is the U.S. government's official web portal to all federal, state and local government web resources and services.